Flugplatz Regensburg-Oberhub

Für EDNR sind keine METAR/TAF Berichte vorhanden.
Es werden die Flugwettermeldungen vom Flugplatz Hohenfels Army Air Field in 19 km Entfernung angezeigt.

Bericht für ETIH

vom 31.05. um 09:56 UTC

Wind 5 kt aus 350°

Sichtweite 10 km oder mehr

aufgebrochene Bewölkung in 10000 ft

aufgebrochene Bewölkung in 12000 ft

Temperatur 15.4°C

Taupunkt 2.2°C

Luftfeuchtigkeit 41%

Luftdruck 1021 hPa

ETIH 310956Z AUTO 35005KT 9999 BKN100 BKN120 15/02 A3014 RMK AO2 SLP206 T01540022
Keine Prognose (TAF) verfügbar.
Impressum